HOURLY OBS INDEX

016

Northwest Pastoral

COOBER PEDY AIRPORT

Site: 016090
Alt: 225.0m
4km SW of COOBER PEDY


  Time     Wind        Temp  DP   Baro     Rain since   Rain past  Vis(m), Cloud(base in m), Weather
  local        km/h                         9am  last   hr   10m    
Tue 19:30   NE 15/ 17  11.1 -1.6  1024.1    0.0   0.0   0.0   0.0   10000 
Tue 20:00   NE 15/ 17  11.1 -1.6  1024.2    0.0   0.0   0.0   0.0   10000 
Tue 20:30  NNE 15/ 17  11.1 -1.6  1024.3    0.0   0.0   0.0   0.0   10000 
Tue 21:00   NE 15/ 19  10.6 -1.8  1024.4    0.0   0.0   0.0   0.0   10000 
Tue 21:30  NNE 15/ 17  10.3 -1.7  1024.3    0.0   0.0   0.0   0.0   10000 
Tue 22:00  NNE 13/ 15   9.9 -2.1  1024.2    0.0   0.0   0.0   0.0   10000 
Tue 22:30  NNE 15/ 17   9.9 -2.1  1024.3    0.0   0.0   0.0   0.0   10000 
Tue 23:00  NNE 17/ 20   9.8 -2.2  1024.2    0.0   0.0   0.0   0.0   10000 
Tue 23:30  NNE 17/ 19   9.7 -1.9  1024.3    0.0   0.0   0.0   0.0   10000 
Wed 00:00  NNE 17/ 17   9.3 -2.0  1024.0    0.0   0.0   0.0   0.0   10000 
Wed 00:30  NNE 19/ 20   9.5 -1.5  1024.0    0.0   0.0   0.0   0.0   10000 
Wed 00:30  NNE 19/ 20   9.5 -1.5  1024.0    0.0   0.0  ----   0.0   10000 

ERNABELLA (PUKATJA)

Site: 016097
Alt: 703.2m
354km WNW of OODNADATTA


  Time     Wind        Temp  DP   Baro     Rain since   Rain past  Vis(m), Cloud(base in m), Weather
  local        km/h                         9am  last   hr   10m    
Tue 19:30   SW 26/ 32  15.0 -5.4  1023.8    0.0   0.0   0.0   0.0   ----- 
Tue 20:00  SSW 22/ 39  14.9 -5.5  1024.1    0.0   0.0   0.0   0.0   ----- 
Tue 20:30    S 13/ 15  14.6 -6.8  1024.0    0.0   0.0   0.0   0.0   ----- 
Tue 21:00    S 19/ 26  14.8 -7.3  1024.3    0.0   0.0   0.0   0.0   ----- 
Tue 21:30    S 22/ 28  14.3 -7.1  1024.7    0.0   0.0   0.0   0.0   ----- 
Tue 22:00    S 17/ 22  13.9 -6.9  1024.7    0.0   0.0   0.0   0.0   ----- 
Tue 22:30    S 13/ 17  13.5 -6.6  1024.9    0.0   0.0   0.0   0.0   ----- 
Tue 23:00    S 19/ 30  13.7 -7.0  1025.1    0.0   0.0   0.0   0.0   ----- 
Tue 23:30  SSE 13/ 17  13.2 -6.9  1024.9    0.0   0.0   0.0   0.0   ----- 
Wed 00:00    S 17/ 20  13.0 -6.5  1024.9    0.0   0.0   0.0   0.0   ----- 
Wed 00:30    S 13/ 17  12.6 -6.4  1024.7    0.0   0.0   0.0   0.0   ----- 
Wed 00:30    S 13/ 17  12.6 -6.4  1024.7    0.0   0.0  ----   0.0   ----- 

ROXBY DOWNS (OLYMPIC DAM AERODROME)

Site: 016096
Alt: 98.5m
76km N of WOOMERA


  Time     Wind        Temp  DP   Baro     Rain since   Rain past  Vis(m), Cloud(base in m), Weather
  local        km/h                         9am  last   hr   10m    
Tue 19:30   NE  7/ 11   9.3 -0.3  1025.9    0.0   0.0   0.0   0.0   10000 
Tue 20:00  ENE  9/ 11   9.6 -0.3  1025.3    0.0   0.0   0.0   0.0   10000 
Tue 20:30   NE  6/  9   9.1 -0.5  1025.3    0.0   0.0   0.0   0.0   10000 
Tue 21:00   NE  9/ 11   9.0 -0.6  1024.9    0.0   0.0   0.0   0.0   10000 
Tue 21:30  NNE  9/ 11   9.4 -0.5  1025.4    0.0   0.0   0.0   0.0   10000 
Tue 22:00  NNE  9/ 11   9.2 -0.7  1025.4    0.0   0.0   0.0   0.0   10000 
Tue 22:30   NE 13/ 15   9.5 -0.4  1025.0    0.0   0.0   0.0   0.0   10000 
Tue 23:00    N  9/ 13   9.4 -0.8  1025.4    0.0   0.0   0.0   0.0   10000 
Tue 23:30    N  7/ 13   9.4 -0.8  1025.5    0.0   0.0   0.0   0.0   10000 
Wed 00:00   NE 11/ 13   8.8 -0.8  1024.8    0.0   0.0   0.0   0.0   10000 
Wed 00:30   NE  9/ 11   8.8 -0.8  1024.8    0.0   0.0   0.0   0.0   10000 
Wed 00:30   NE  9/ 11   8.8 -0.8  1024.8    0.0   0.0  ----   0.0   10000 

TARCOOLA AERO

Site: 016098
Alt: 123.0m
180km NNE of CEDUNA


  Time     Wind        Temp  DP   Baro     Rain since   Rain past  Vis(m), Cloud(base in m), Weather
  local        km/h                         9am  last   hr   10m    
Tue 19:30   NE 11/ 13   8.9 -0.4  1024.0    0.0   0.0   0.0   0.0   ----- 
Tue 20:00   NE 11/ 13   8.6 -0.4  1024.1    0.0   0.0   0.0   0.0   ----- 
Tue 20:30   NE  9/ 11   8.5 -0.3  1024.4    0.0   0.0   0.0   0.0   ----- 
Tue 21:00  NNE  9/ 11   8.6  0.1  1024.6    0.0   0.0   0.0   0.0   ----- 
Tue 21:30  NNE  9/ 11   8.2  0.0  1024.6    0.0   0.0   0.0   0.0   ----- 
Tue 22:00  NNE 11/ 13   8.6  0.1  1024.5    0.0   0.0   0.0   0.0   ----- 
Tue 22:30  NNE  9/ 13   8.5 -0.3  1024.5    0.0   0.0   0.0   0.0   ----- 
Tue 23:00  NNE  4/  7   8.2  0.0  1024.5    0.0   0.0   0.0   0.0   ----- 
Tue 23:30   NE 11/ 13   8.5  0.5  1024.1    0.0   0.0   0.0   0.0   ----- 
Wed 00:00  NNE 11/ 13   8.4  0.1  1023.8    0.0   0.0   0.0   0.0   ----- 
Wed 00:30   NE 15/ 17   9.9  0.0  1023.5    0.0   0.0   0.0   0.0   ----- 
Wed 00:30   NE 15/ 17   9.9  0.0  1023.5    0.0   0.0  ----   0.0   ----- 

WOOMERA AERODROME

Site: 016001
Alt: 166.6m
1km NW of WOOMERA


  Time     Wind        Temp  DP   Baro     Rain since   Rain past  Vis(m), Cloud(base in m), Weather
  local        km/h                         9am  last   hr   10m    
Tue 19:30   NE 13/ 15   8.5  0.7  1025.3    0.0   0.0   0.0   0.0   10000 
Tue 20:00   NE 15/ 19   8.5  0.7  1024.9    0.0   0.0   0.0   0.0   10000 
Tue 20:30  NNE 17/ 17   8.5  0.7  1025.2    0.0   0.0   0.0   0.0   10000 
Tue 21:00   NE  9/ 11   8.0  0.5  1025.0    0.0   0.0   0.0   0.0   10000 
Tue 21:30   NE 13/ 15   7.7  0.7  1024.8    0.0   0.0   0.0   0.0   10000 
Tue 22:00    N 15/ 20   8.2  0.4  1025.4    0.0   0.0   0.0   0.0   10000 
Tue 22:30  NNE 15/ 20   8.0  0.3  1025.1    0.0   0.0   0.0   0.0   10000 
Tue 23:00  NNE 15/ 19   7.4  0.2  1025.2    0.0   0.0   0.0   0.0   10000 
Tue 23:30   NE 17/ 20   7.6  0.1  1024.5    0.0   0.0   0.0   0.0   10000 
Wed 00:00  NNE 17/ 19   7.5  0.0  1024.8    0.0   0.0   0.0   0.0   10000 
Wed 00:30  NNE 13/ 15   7.4  0.2  1024.5    0.0   0.0   0.0   0.0   10000 
Wed 00:30  NNE 13/ 15   7.4  0.2  1024.5    0.0   0.0  ----   0.0   10000